createdAt,value
2022-10-31T00:02:53.843Z,31.50
2022-10-31T00:05:55.748Z,31.60
2022-10-31T00:09:02.337Z,31.50
2022-10-31T00:12:04.679Z,31.40
2022-10-31T00:15:06.995Z,31.40
2022-10-31T00:18:10.905Z,31.50
2022-10-31T00:21:12.975Z,31.40
2022-10-31T00:24:14.991Z,31.50
2022-10-31T00:27:17.097Z,31.40
2022-10-31T00:30:19.112Z,31.50
2022-10-31T00:33:21.249Z,31.50
2022-10-31T00:36:23.177Z,31.40
2022-10-31T00:39:25.244Z,31.40
2022-10-31T00:42:27.140Z,31.40
2022-10-31T00:45:29.252Z,31.50
2022-10-31T00:48:31.816Z,31.50
2022-10-31T00:51:33.940Z,31.50
2022-10-31T00:54:35.977Z,31.50
2022-10-31T00:57:38.057Z,31.40
2022-10-31T01:00:40.466Z,31.40
2022-10-31T01:03:42.574Z,31.50
2022-10-31T01:06:44.516Z,31.40
2022-10-31T01:09:46.572Z,31.40
2022-10-31T01:12:50.159Z,31.40
2022-10-31T01:15:56.826Z,31.40
2022-10-31T01:18:59.044Z,31.40
2022-10-31T01:22:01.208Z,31.40
2022-10-31T01:25:03.718Z,31.40
2022-10-31T01:28:07.842Z,31.40
2022-10-31T01:31:10.407Z,31.30
2022-10-31T01:34:16.408Z,31.30
2022-10-31T01:37:18.288Z,31.20
2022-10-31T01:40:20.443Z,31.30
2022-10-31T01:46:36.781Z,31.20
2022-10-31T01:49:46.986Z,31.20
2022-10-31T01:52:51.910Z,31.20
2022-10-31T01:55:54.007Z,31.20
2022-10-31T01:58:57.905Z,31.20
2022-10-31T02:01:59.950Z,31.10
2022-10-31T02:05:07.626Z,31.20
2022-10-31T02:08:15.536Z,31.10
2022-10-31T02:11:17.659Z,31.20
2022-10-31T02:14:22.104Z,31.20
2022-10-31T02:17:24.265Z,31.10
2022-10-31T02:20:33.066Z,31.10
2022-10-31T02:24:05.827Z,31.10
2022-10-31T02:27:10.522Z,31.10
2022-10-31T02:30:17.972Z,31.10
2022-10-31T02:33:31.713Z,31.10
2022-10-31T02:36:50.561Z,31.10
2022-10-31T02:40:03.164Z,31.10
2022-10-31T02:43:17.275Z,31.10
2022-10-31T02:46:40.555Z,31.10
2022-10-31T02:50:13.819Z,31.20
2022-10-31T02:53:16.734Z,31.10
2022-10-31T02:56:20.551Z,31.20
2022-10-31T02:59:23.284Z,31.10
2022-10-31T03:02:45.372Z,31.10
2022-10-31T03:06:29.936Z,31.20
2022-10-31T03:09:40.149Z,31.10
2022-10-31T03:12:49.305Z,31.10
2022-10-31T03:15:54.429Z,31.10
2022-10-31T03:19:02.579Z,31.10
2022-10-31T03:22:13.229Z,31.10
2022-10-31T03:25:15.521Z,31.10
2022-10-31T03:28:22.891Z,31.10
2022-10-31T03:31:30.453Z,31.10
2022-10-31T03:34:34.483Z,31.00
2022-10-31T03:37:39.305Z,30.90
2022-10-31T03:40:44.412Z,30.90
2022-10-31T03:43:55.485Z,30.90
2022-10-31T03:46:58.229Z,30.90
2022-10-31T03:50:00.620Z,30.90
2022-10-31T03:53:15.783Z,30.90
2022-10-31T03:56:23.702Z,30.90
2022-10-31T03:59:31.345Z,30.90
2022-10-31T04:02:37.037Z,30.80
2022-10-31T04:05:39.948Z,30.90
2022-10-31T04:08:59.761Z,30.90
2022-10-31T04:12:04.738Z,30.90
2022-10-31T04:15:08.935Z,30.80
2022-10-31T04:18:11.668Z,30.80
2022-10-31T04:21:13.722Z,30.80
2022-10-31T04:24:15.855Z,30.80
2022-10-31T04:27:17.741Z,30.70
2022-10-31T04:30:19.938Z,30.70
2022-10-31T04:33:21.927Z,30.80
2022-10-31T04:36:23.989Z,30.80
2022-10-31T04:39:26.870Z,30.80
2022-10-31T04:42:32.597Z,30.80
2022-10-31T04:45:34.466Z,30.70
2022-10-31T04:48:36.566Z,30.70
2022-10-31T04:51:38.567Z,30.80
2022-10-31T04:54:40.764Z,30.70
2022-10-31T04:57:47.931Z,30.70
2022-10-31T05:00:54.058Z,30.80
2022-10-31T05:03:56.051Z,30.80
2022-10-31T05:06:58.128Z,30.80
2022-10-31T05:09:59.983Z,30.70
2022-10-31T05:13:04.285Z,30.70
2022-10-31T05:16:06.828Z,30.60
2022-10-31T05:19:08.910Z,30.70
2022-10-31T05:22:10.827Z,30.70
2022-10-31T05:25:13.414Z,30.70
2022-10-31T05:28:15.407Z,30.70
2022-10-31T05:31:17.553Z,30.70
2022-10-31T05:34:19.486Z,30.70
2022-10-31T05:37:21.659Z,30.80
2022-10-31T05:40:23.679Z,30.80
2022-10-31T05:43:25.789Z,30.80
2022-10-31T05:46:27.683Z,30.80
2022-10-31T05:49:29.888Z,30.70
2022-10-31T05:52:32.013Z,30.70
2022-10-31T05:55:34.227Z,30.80
2022-10-31T05:58:36.165Z,30.80
2022-10-31T06:01:38.373Z,30.90
2022-10-31T06:04:40.357Z,30.90
2022-10-31T06:07:42.502Z,30.90
2022-10-31T06:10:44.932Z,30.80
2022-10-31T06:13:47.128Z,30.80
2022-10-31T06:16:49.047Z,30.90
2022-10-31T06:19:51.208Z,30.90
2022-10-31T06:22:53.219Z,30.90
2022-10-31T06:25:56.420Z,30.90
2022-10-31T06:29:02.996Z,30.80
2022-10-31T06:32:06.377Z,30.90
2022-10-31T06:35:08.473Z,30.80
2022-10-31T06:38:10.651Z,30.90
2022-10-31T06:41:12.621Z,31.00
2022-10-31T06:44:14.901Z,31.00
2022-10-31T06:47:16.802Z,31.00
2022-10-31T06:50:20.435Z,31.10
2022-10-31T06:53:22.340Z,31.20
2022-10-31T06:56:24.532Z,31.30
2022-10-31T06:59:26.389Z,31.50
2022-10-31T07:02:28.560Z,31.60
2022-10-31T07:05:31.241Z,31.70
2022-10-31T07:08:33.447Z,31.70
2022-10-31T07:11:35.385Z,31.80
2022-10-31T07:14:37.467Z,31.90
2022-10-31T07:17:39.314Z,31.80
2022-10-31T07:20:41.468Z,31.90
2022-10-31T07:23:43.348Z,32.00
2022-10-31T07:26:48.405Z,32.10
2022-10-31T07:29:50.301Z,32.20
2022-10-31T07:32:52.530Z,32.10
2022-10-31T07:35:54.693Z,32.10
2022-10-31T07:38:56.873Z,32.10
2022-10-31T07:41:59.964Z,32.20
2022-10-31T07:45:02.048Z,32.10
2022-10-31T07:48:04.290Z,32.30
2022-10-31T07:51:07.949Z,32.30
2022-10-31T07:54:09.820Z,32.50
2022-10-31T07:57:11.994Z,32.40
2022-10-31T08:00:14.066Z,32.50
2022-10-31T08:03:18.613Z,32.60
2022-10-31T08:06:20.724Z,32.40
2022-10-31T08:09:22.801Z,32.30
2022-10-31T08:12:24.837Z,32.40
2022-10-31T08:15:27.895Z,32.50
2022-10-31T08:18:30.210Z,32.60
2022-10-31T08:21:32.372Z,32.70
2022-10-31T08:24:34.288Z,32.80
2022-10-31T08:27:37.524Z,32.90
2022-10-31T08:30:41.725Z,32.90
2022-10-31T08:33:43.782Z,33.00
2022-10-31T08:36:47.152Z,33.10
2022-10-31T08:39:49.517Z,33.10
2022-10-31T08:42:58.563Z,33.30
2022-10-31T08:46:00.868Z,33.30
2022-10-31T08:49:03.033Z,33.50
2022-10-31T08:52:05.155Z,33.50
2022-10-31T08:55:07.490Z,33.60
2022-10-31T08:58:15.346Z,33.80
2022-10-31T09:01:17.469Z,33.90
2022-10-31T09:04:19.609Z,34.00
2022-10-31T09:07:21.847Z,34.00
2022-10-31T09:10:24.674Z,34.10
2022-10-31T09:13:28.292Z,34.20
2022-10-31T09:16:30.567Z,34.20
2022-10-31T09:19:32.451Z,34.30
2022-10-31T09:22:34.660Z,34.30
2022-10-31T09:25:36.930Z,34.40
2022-10-31T09:28:39.060Z,34.50
2022-10-31T09:31:44.727Z,34.60
2022-10-31T09:34:47.309Z,34.60
2022-10-31T09:37:57.963Z,34.70
2022-10-31T09:41:18.017Z,34.80
2022-10-31T09:45:06.192Z,34.80
2022-10-31T09:48:08.560Z,34.80
2022-10-31T09:51:16.329Z,35.00
2022-10-31T09:54:35.154Z,34.90
2022-10-31T09:57:38.054Z,35.00
2022-10-31T10:00:40.799Z,35.00
2022-10-31T10:03:48.131Z,35.00
2022-10-31T10:06:52.305Z,35.00
2022-10-31T10:09:54.622Z,35.10
2022-10-31T10:13:21.976Z,35.10
2022-10-31T10:16:39.368Z,35.10
2022-10-31T10:20:01.790Z,35.20
2022-10-31T10:23:23.445Z,35.30
2022-10-31T10:26:41.593Z,35.40
2022-10-31T10:30:02.452Z,35.50
2022-10-31T10:33:14.821Z,35.50
2022-10-31T10:36:28.725Z,35.50
2022-10-31T10:39:41.488Z,35.60
2022-10-31T10:43:10.267Z,35.60
2022-10-31T10:46:46.307Z,35.60
2022-10-31T10:49:52.817Z,35.70
2022-10-31T10:53:33.406Z,35.80
2022-10-31T10:57:01.730Z,35.90
2022-10-31T11:00:34.714Z,36.00
2022-10-31T11:03:37.008Z,36.00
2022-10-31T11:06:39.207Z,36.00
2022-10-31T11:09:41.387Z,36.10
2022-10-31T11:12:46.840Z,36.20
2022-10-31T11:16:14.561Z,36.20
2022-10-31T11:19:27.415Z,36.20
2022-10-31T11:22:29.410Z,36.20
2022-10-31T11:25:31.493Z,36.30
2022-10-31T11:28:37.814Z,36.30
2022-10-31T11:31:40.659Z,36.40
2022-10-31T11:34:47.477Z,36.30
2022-10-31T11:37:52.998Z,36.40
2022-10-31T11:40:56.843Z,36.40
2022-10-31T11:44:01.133Z,36.50
2022-10-31T11:47:06.504Z,36.40
2022-10-31T11:50:19.148Z,36.30
2022-10-31T11:53:28.320Z,36.30
2022-10-31T11:56:43.645Z,36.40
2022-10-31T11:59:53.409Z,36.50
2022-10-31T12:03:23.515Z,36.70
2022-10-31T12:06:32.590Z,36.80
2022-10-31T12:09:36.906Z,36.80
2022-10-31T12:13:04.008Z,36.90
2022-10-31T12:16:26.628Z,36.90
2022-10-31T12:19:33.609Z,36.90
2022-10-31T12:23:00.273Z,37.00
2022-10-31T12:26:17.378Z,37.10
2022-10-31T12:29:41.155Z,37.10
2022-10-31T12:33:01.493Z,37.00
2022-10-31T12:36:28.718Z,37.10
2022-10-31T12:40:04.216Z,37.00
2022-10-31T12:43:16.872Z,37.10
2022-10-31T12:46:59.922Z,37.20
2022-10-31T12:50:23.366Z,37.30
2022-10-31T12:53:59.416Z,37.30
2022-10-31T12:57:12.016Z,37.30
2022-10-31T13:00:18.035Z,37.40
2022-10-31T13:03:34.659Z,37.40
2022-10-31T13:06:44.724Z,37.30
2022-10-31T13:10:03.603Z,37.30
2022-10-31T13:13:27.703Z,37.30
2022-10-31T13:16:35.523Z,37.40
2022-10-31T13:19:41.986Z,37.50
2022-10-31T13:22:49.219Z,37.60
2022-10-31T13:25:55.740Z,37.50
2022-10-31T13:29:34.318Z,37.50
2022-10-31T13:32:59.846Z,37.40
2022-10-31T13:36:40.444Z,37.40
2022-10-31T13:39:47.969Z,37.40
2022-10-31T13:43:18.767Z,37.50
2022-10-31T13:49:48.601Z,37.50
2022-10-31T13:52:50.594Z,37.50
2022-10-31T13:56:24.866Z,37.50
2022-10-31T13:59:33.982Z,37.50
2022-10-31T14:02:37.736Z,37.50
2022-10-31T14:05:39.691Z,37.50
2022-10-31T14:08:51.841Z,37.40
2022-10-31T14:11:54.730Z,37.40
2022-10-31T14:15:18.692Z,37.40
2022-10-31T14:18:26.664Z,37.40
2022-10-31T14:21:32.074Z,37.30
2022-10-31T14:24:36.837Z,37.40
2022-10-31T14:27:47.348Z,37.30
2022-10-31T14:30:57.672Z,37.30
2022-10-31T14:34:02.413Z,37.30
2022-10-31T14:37:41.462Z,37.20
2022-10-31T14:41:19.695Z,37.10
2022-10-31T14:44:43.662Z,37.10
2022-10-31T14:48:20.972Z,37.00
2022-10-31T14:51:27.296Z,36.90
2022-10-31T14:54:35.133Z,36.90
2022-10-31T14:57:39.976Z,36.80
2022-10-31T15:00:44.560Z,36.70
2022-10-31T15:04:10.178Z,36.60
2022-10-31T15:07:23.474Z,36.40
2022-10-31T15:10:37.490Z,36.30
2022-10-31T15:13:46.099Z,36.20
2022-10-31T15:16:48.233Z,36.00
2022-10-31T15:19:51.020Z,36.00
2022-10-31T15:22:54.465Z,35.90
2022-10-31T15:26:01.288Z,35.80
2022-10-31T15:29:06.216Z,35.60
2022-10-31T15:32:22.196Z,35.50
2022-10-31T15:35:28.006Z,35.40
2022-10-31T15:38:30.777Z,35.30
2022-10-31T15:41:38.309Z,35.20
2022-10-31T15:44:43.037Z,35.10
2022-10-31T15:47:59.040Z,34.90
2022-10-31T15:51:03.301Z,34.90
2022-10-31T15:54:05.292Z,34.80
2022-10-31T15:57:12.507Z,34.70
2022-10-31T16:00:36.485Z,34.60
2022-10-31T16:03:38.620Z,34.50
2022-10-31T16:06:40.673Z,34.50
2022-10-31T16:09:56.936Z,34.40
2022-10-31T16:13:01.588Z,34.30
2022-10-31T16:19:51.512Z,34.20
2022-10-31T16:22:55.108Z,34.10
2022-10-31T16:25:57.099Z,34.10
2022-10-31T16:29:04.882Z,34.00
2022-10-31T16:32:32.914Z,33.90
2022-10-31T16:35:39.789Z,33.80
2022-10-31T16:38:42.031Z,33.80
2022-10-31T16:41:53.420Z,33.90
2022-10-31T16:44:55.432Z,33.70
2022-10-31T16:48:11.506Z,33.80
2022-10-31T16:51:13.523Z,33.70
2022-10-31T16:54:15.674Z,33.60
2022-10-31T16:57:27.281Z,33.50
2022-10-31T17:00:29.467Z,33.50
2022-10-31T17:03:31.418Z,33.40
2022-10-31T17:06:33.623Z,33.40
2022-10-31T17:09:35.494Z,33.30
2022-10-31T17:12:39.866Z,33.30
2022-10-31T17:15:46.013Z,33.20
2022-10-31T17:18:48.249Z,33.00
2022-10-31T17:21:50.220Z,33.00
2022-10-31T17:24:52.291Z,33.00
2022-10-31T17:27:54.597Z,32.90
2022-10-31T17:30:59.091Z,33.00
2022-10-31T17:34:02.661Z,33.00
2022-10-31T17:37:05.736Z,32.90
2022-10-31T17:40:08.083Z,32.90
2022-10-31T17:43:11.113Z,32.80
2022-10-31T17:46:13.185Z,32.80
2022-10-31T17:49:15.432Z,32.80
2022-10-31T17:52:17.388Z,32.50
2022-10-31T17:55:20.172Z,32.60
2022-10-31T17:58:22.029Z,32.70
2022-10-31T18:01:24.648Z,32.60
2022-10-31T18:04:26.936Z,32.60
2022-10-31T18:07:29.211Z,32.60
2022-10-31T18:10:31.392Z,32.60
2022-10-31T18:13:33.479Z,32.50
2022-10-31T18:19:38.471Z,32.30
2022-10-31T18:22:40.423Z,32.10
2022-10-31T18:25:43.502Z,32.20
2022-10-31T18:28:45.367Z,31.80
2022-10-31T18:31:52.836Z,32.00
2022-10-31T18:34:54.738Z,32.30
2022-10-31T18:37:59.275Z,32.50
2022-10-31T18:41:04.377Z,32.50
2022-10-31T18:44:07.974Z,32.40
2022-10-31T18:47:09.878Z,32.30
2022-10-31T18:50:12.460Z,32.30
2022-10-31T18:53:14.424Z,32.20
2022-10-31T18:56:16.720Z,32.10
2022-10-31T18:59:18.689Z,32.10
2022-10-31T19:02:20.860Z,32.20
2022-10-31T19:05:23.022Z,32.30
2022-10-31T19:08:25.233Z,31.70
2022-10-31T19:11:28.078Z,31.90
2022-10-31T19:14:30.200Z,32.00
2022-10-31T19:17:32.471Z,32.30
2022-10-31T19:20:34.621Z,32.30
2022-10-31T19:23:36.975Z,32.30
2022-10-31T19:26:39.133Z,32.70
2022-10-31T19:29:42.278Z,32.60
2022-10-31T19:32:44.476Z,32.50
2022-10-31T19:35:46.417Z,32.40
2022-10-31T19:38:50.575Z,32.30
2022-10-31T19:41:52.478Z,31.90
2022-10-31T19:44:54.642Z,32.10
2022-10-31T19:47:56.644Z,32.00
2022-10-31T19:51:06.896Z,32.10
2022-10-31T19:54:08.863Z,32.40
2022-10-31T19:57:11.242Z,32.30
2022-10-31T20:00:13.866Z,32.30
2022-10-31T20:03:19.840Z,32.10
2022-10-31T20:06:28.209Z,32.40
2022-10-31T20:09:30.562Z,32.50
2022-10-31T20:12:33.758Z,32.60
2022-10-31T20:15:35.935Z,32.60
2022-10-31T20:18:39.264Z,32.70
2022-10-31T20:21:41.867Z,32.60
2022-10-31T20:24:43.751Z,32.60
2022-10-31T20:27:45.935Z,32.50
2022-10-31T20:30:47.840Z,32.60
2022-10-31T20:33:50.840Z,32.70
2022-10-31T20:36:52.889Z,32.40
2022-10-31T20:39:56.592Z,32.30
2022-10-31T20:42:59.159Z,32.00
2022-10-31T20:46:06.457Z,32.30
2022-10-31T20:49:08.605Z,32.00
2022-10-31T20:52:10.749Z,31.80
2022-10-31T20:55:12.714Z,32.10
2022-10-31T20:58:14.863Z,32.10
2022-10-31T21:01:20.491Z,32.20
2022-10-31T21:04:22.971Z,32.20
2022-10-31T21:07:24.898Z,31.70
2022-10-31T21:10:26.968Z,31.80
2022-10-31T21:13:29.786Z,31.90
2022-10-31T21:16:35.799Z,31.70
2022-10-31T21:19:37.718Z,31.50
2022-10-31T21:22:40.303Z,31.20
2022-10-31T21:25:43.108Z,31.40
2022-10-31T21:28:45.197Z,31.70
2022-10-31T21:31:48.028Z,31.90
2022-10-31T21:34:50.365Z,31.20
2022-10-31T21:37:52.288Z,31.50
2022-10-31T21:41:02.282Z,32.00
2022-10-31T21:44:04.454Z,31.70
2022-10-31T21:47:06.540Z,32.00
2022-10-31T21:50:09.719Z,32.20
2022-10-31T21:53:30.699Z,31.80
2022-10-31T21:56:33.024Z,31.80
2022-10-31T21:59:35.137Z,31.90
2022-10-31T22:02:37.429Z,32.20
2022-10-31T22:05:39.672Z,32.00
2022-10-31T22:08:41.929Z,32.10
2022-10-31T22:11:44.094Z,32.30
2022-10-31T22:14:45.967Z,32.20
2022-10-31T22:17:48.513Z,32.30
2022-10-31T22:20:50.363Z,32.50
2022-10-31T22:23:54.731Z,32.60
2022-10-31T22:26:56.600Z,32.80
2022-10-31T22:29:58.877Z,32.80
2022-10-31T22:33:01.246Z,32.80
2022-10-31T22:36:05.709Z,32.30
2022-10-31T22:39:09.623Z,31.90
2022-10-31T22:42:11.694Z,32.20
2022-10-31T22:45:13.660Z,32.30
2022-10-31T22:48:15.739Z,32.60
2022-10-31T22:51:20.405Z,32.50
2022-10-31T22:54:22.511Z,32.50
2022-10-31T22:57:24.416Z,32.60
2022-10-31T23:00:26.555Z,32.80
2022-10-31T23:03:28.457Z,32.80
2022-10-31T23:06:31.894Z,32.50
2022-10-31T23:09:33.815Z,32.50
2022-10-31T23:12:54.754Z,32.10
2022-10-31T23:15:56.628Z,32.10
2022-10-31T23:18:58.901Z,32.20
2022-10-31T23:22:04.075Z,32.30
2022-10-31T23:25:06.553Z,32.40
2022-10-31T23:28:08.443Z,31.90
2022-10-31T23:31:10.575Z,31.70
2022-10-31T23:34:12.467Z,31.90
2022-10-31T23:37:15.663Z,32.20
2022-10-31T23:40:17.770Z,32.20
2022-10-31T23:43:19.878Z,31.80
2022-10-31T23:46:21.809Z,31.10
2022-10-31T23:49:24.019Z,31.10
2022-10-31T23:52:25.894Z,31.40
2022-10-31T23:55:28.052Z,31.70
2022-10-31T23:58:29.987Z,32.00
